createdAt,value
2024-02-10T00:00:48.013Z,6.65
2024-02-10T00:03:15.655Z,11.23
2024-02-10T00:05:46.318Z,5.97
2024-02-10T00:08:13.975Z,5.75
2024-02-10T00:10:43.235Z,7.80
2024-02-10T00:13:12.286Z,7.55
2024-02-10T00:15:42.107Z,6.32
2024-02-10T00:18:11.453Z,8.93
2024-02-10T00:20:39.053Z,6.75
2024-02-10T00:23:06.597Z,8.25
2024-02-10T00:25:34.577Z,7.82
2024-02-10T00:28:03.907Z,7.10
2024-02-10T00:30:32.073Z,5.30
2024-02-10T00:33:00.873Z,5.72
2024-02-10T00:35:28.434Z,5.03
2024-02-10T00:37:57.940Z,6.38
2024-02-10T00:40:25.559Z,7.95
2024-02-10T00:42:53.192Z,5.82
2024-02-10T00:45:20.983Z,7.05
2024-02-10T00:47:49.123Z,4.78
2024-02-10T00:50:18.441Z,8.75
2024-02-10T00:52:51.509Z,6.55
2024-02-10T00:55:19.651Z,8.25
2024-02-10T00:57:49.081Z,7.60
2024-02-10T01:00:19.338Z,6.10
2024-02-10T01:02:47.584Z,6.50
2024-02-10T01:05:15.696Z,6.80
2024-02-10T01:07:45.524Z,8.18
2024-02-10T01:10:13.104Z,4.85
2024-02-10T01:12:40.774Z,6.40
2024-02-10T01:15:08.479Z,7.65
2024-02-10T01:17:36.236Z,4.25
2024-02-10T01:20:05.529Z,7.38
2024-02-10T01:22:33.127Z,5.78
2024-02-10T01:25:00.540Z,3.40
2024-02-10T01:27:28.674Z,7.55
2024-02-10T01:30:02.304Z,5.43
2024-02-10T01:32:29.950Z,5.75
2024-02-10T01:34:57.361Z,4.28
2024-02-10T01:37:25.252Z,4.32
2024-02-10T01:39:56.622Z,7.72
2024-02-10T01:42:42.905Z,6.50
2024-02-10T01:45:14.726Z,6.45
2024-02-10T01:47:46.029Z,6.90
2024-02-10T01:50:16.596Z,8.33
2024-02-10T01:52:44.999Z,6.18
2024-02-10T01:55:12.938Z,8.98
2024-02-10T01:57:41.090Z,8.25
2024-02-10T02:00:15.326Z,6.47
2024-02-10T02:02:43.223Z,5.53
2024-02-10T02:05:10.654Z,5.28
2024-02-10T02:07:39.942Z,6.97
2024-02-10T02:10:10.206Z,6.47
2024-02-10T02:12:49.460Z,10.60
2024-02-10T02:15:18.348Z,6.80
2024-02-10T02:17:46.316Z,5.22
2024-02-10T02:20:17.142Z,12.38
2024-02-10T02:22:56.955Z,10.20
2024-02-10T02:25:24.862Z,6.38
2024-02-10T02:27:52.261Z,5.68
2024-02-10T02:30:19.964Z,10.52
2024-02-10T02:32:50.971Z,8.60
2024-02-10T02:35:18.516Z,6.57
2024-02-10T02:37:46.263Z,6.50
2024-02-10T02:40:15.060Z,6.93
2024-02-10T02:42:42.547Z,7.18
2024-02-10T02:45:12.442Z,6.72
2024-02-10T02:47:40.423Z,4.65
2024-02-10T02:50:11.353Z,3.90
2024-02-10T02:52:39.920Z,7.75
2024-02-10T02:55:12.978Z,6.53
2024-02-10T02:57:41.121Z,5.85
2024-02-10T03:00:08.768Z,6.20
2024-02-10T03:02:42.438Z,6.30
2024-02-10T03:05:13.962Z,7.03
2024-02-10T03:07:47.555Z,6.20
2024-02-10T03:10:15.731Z,4.20
2024-02-10T03:12:43.524Z,4.72
2024-02-10T03:15:11.444Z,6.00
2024-02-10T03:17:39.022Z,6.03
2024-02-10T03:20:07.174Z,8.10
2024-02-10T03:22:34.930Z,3.70
2024-02-10T03:25:02.399Z,4.38
2024-02-10T03:27:29.717Z,5.35
2024-02-10T03:29:57.170Z,4.40
2024-02-10T03:32:24.694Z,8.00
2024-02-10T03:34:52.287Z,4.63
2024-02-10T03:37:22.887Z,6.68
2024-02-10T03:39:50.359Z,3.60
2024-02-10T03:42:19.792Z,8.30
2024-02-10T03:44:47.948Z,3.22
2024-02-10T03:47:15.293Z,6.60
2024-02-10T03:49:42.712Z,4.85
2024-02-10T03:52:10.272Z,4.47
2024-02-10T03:54:37.767Z,8.40
2024-02-10T03:57:05.189Z,5.38
2024-02-10T03:59:32.680Z,3.53
2024-02-10T04:02:00.541Z,5.82
2024-02-10T04:04:29.453Z,6.60
2024-02-10T04:06:58.589Z,5.05
2024-02-10T04:09:26.031Z,5.03
2024-02-10T04:11:53.529Z,4.90
2024-02-10T04:14:22.203Z,9.32
2024-02-10T04:16:54.106Z,6.28
2024-02-10T04:19:22.094Z,10.00
2024-02-10T04:21:52.583Z,3.83
2024-02-10T04:24:20.482Z,3.83
2024-02-10T04:26:48.453Z,7.53
2024-02-10T04:29:19.879Z,4.93
2024-02-10T04:31:48.399Z,5.63
2024-02-10T04:34:15.852Z,5.38
2024-02-10T04:36:43.449Z,5.90
2024-02-10T04:39:11.485Z,8.27
2024-02-10T04:41:38.869Z,3.92
2024-02-10T04:44:07.256Z,4.63
2024-02-10T04:46:34.653Z,4.18
2024-02-10T04:49:03.633Z,6.75
2024-02-10T04:51:32.613Z,4.35
2024-02-10T04:54:01.932Z,4.90
2024-02-10T04:56:31.300Z,4.20
2024-02-10T04:58:58.906Z,4.80
2024-02-10T05:01:33.187Z,3.55
2024-02-10T05:04:00.946Z,4.57
2024-02-10T05:06:33.857Z,5.47
2024-02-10T05:09:01.473Z,6.60
2024-02-10T05:11:30.199Z,3.40
2024-02-10T05:13:57.661Z,4.70
2024-02-10T05:16:25.167Z,3.38
2024-02-10T05:18:53.284Z,5.13
2024-02-10T05:21:21.964Z,5.57
2024-02-10T05:23:50.639Z,4.70
2024-02-10T05:26:18.698Z,3.92
2024-02-10T05:28:49.196Z,5.05
2024-02-10T05:31:19.260Z,6.43
2024-02-10T05:33:48.074Z,4.90
2024-02-10T05:36:16.521Z,3.83
2024-02-10T05:38:45.255Z,3.55
2024-02-10T05:41:12.738Z,5.53
2024-02-10T05:43:40.311Z,3.47
2024-02-10T05:46:10.904Z,4.20
2024-02-10T05:48:38.562Z,4.88
2024-02-10T05:51:06.676Z,5.18
2024-02-10T05:53:34.086Z,3.78
2024-02-10T05:56:01.647Z,6.45
2024-02-10T05:58:29.234Z,4.57
2024-02-10T06:00:56.770Z,6.20
2024-02-10T06:03:30.643Z,3.40
2024-02-10T06:05:58.372Z,5.67
2024-02-10T06:08:25.830Z,4.35
2024-02-10T06:10:54.591Z,6.90
2024-02-10T06:13:24.942Z,7.25
2024-02-10T06:15:53.624Z,3.10
2024-02-10T06:18:30.884Z,4.13
2024-02-10T06:21:00.307Z,3.70
2024-02-10T06:23:32.401Z,3.38
2024-02-10T06:25:59.844Z,5.90
2024-02-10T06:28:27.517Z,4.00
2024-02-10T06:30:56.100Z,5.22
2024-02-10T06:33:25.175Z,6.05
2024-02-10T06:35:53.070Z,4.50
2024-02-10T06:38:20.452Z,6.55
2024-02-10T06:40:49.319Z,3.67
2024-02-10T06:43:18.790Z,4.75
2024-02-10T06:45:47.586Z,5.30
2024-02-10T06:48:15.181Z,3.75
2024-02-10T06:50:46.603Z,4.63
2024-02-10T06:53:15.532Z,4.72
2024-02-10T06:55:42.987Z,3.63
2024-02-10T06:58:10.453Z,4.20
2024-02-10T07:00:41.988Z,5.72
2024-02-10T07:03:09.830Z,4.43
2024-02-10T07:05:40.547Z,3.70
2024-02-10T07:08:08.266Z,3.88
2024-02-10T07:10:35.747Z,6.45
2024-02-10T07:13:05.694Z,5.22
2024-02-10T07:15:35.954Z,4.35
2024-02-10T07:18:04.358Z,5.95
2024-02-10T07:20:33.297Z,8.18
2024-02-10T07:23:03.981Z,4.75
2024-02-10T07:25:39.120Z,5.18
2024-02-10T07:28:08.169Z,4.93
2024-02-10T07:30:36.171Z,3.55
2024-02-10T07:33:12.101Z,3.63
2024-02-10T07:35:40.795Z,3.55
2024-02-10T07:38:10.028Z,4.55
2024-02-10T07:40:38.442Z,5.55
2024-02-10T07:43:07.569Z,4.45
2024-02-10T07:45:35.439Z,5.35
2024-02-10T07:48:05.406Z,4.03
2024-02-10T07:50:33.265Z,3.63
2024-02-10T07:53:01.429Z,4.35
2024-02-10T07:55:29.360Z,4.82
2024-02-10T07:58:00.569Z,3.72
2024-02-10T08:00:28.906Z,3.92
2024-02-10T08:02:56.389Z,4.50
2024-02-10T08:05:23.934Z,4.60
2024-02-10T08:07:51.375Z,6.70
2024-02-10T08:10:20.681Z,4.13
2024-02-10T08:12:51.838Z,3.80
2024-02-10T08:15:19.604Z,5.85
2024-02-10T08:17:47.138Z,7.30
2024-02-10T08:20:15.082Z,6.63
2024-02-10T08:22:42.601Z,4.25
2024-02-10T08:25:11.485Z,4.68
2024-02-10T08:27:41.400Z,4.95
2024-02-10T08:30:20.250Z,6.15
2024-02-10T08:32:47.853Z,4.93
2024-02-10T08:35:17.413Z,5.00
2024-02-10T08:37:44.919Z,5.22
2024-02-10T08:40:14.000Z,5.40
2024-02-10T08:42:41.376Z,6.70
2024-02-10T08:45:10.593Z,6.88
2024-02-10T08:47:38.188Z,5.93
2024-02-10T08:50:09.115Z,5.35
2024-02-10T08:52:38.315Z,6.40
2024-02-10T08:55:06.949Z,5.95
2024-02-10T08:57:37.515Z,4.22
2024-02-10T09:00:12.158Z,5.72
2024-02-10T09:02:39.595Z,8.02
2024-02-10T09:05:08.770Z,4.95
2024-02-10T09:07:36.457Z,7.82
2024-02-10T09:10:03.991Z,5.15
2024-02-10T09:12:31.465Z,5.93
2024-02-10T09:14:58.951Z,5.43
2024-02-10T09:17:26.566Z,4.70
2024-02-10T09:19:53.990Z,6.30
2024-02-10T09:22:21.698Z,6.47
2024-02-10T09:24:51.160Z,6.32
2024-02-10T09:27:19.455Z,5.20
2024-02-10T09:29:47.787Z,6.32
2024-02-10T09:32:15.776Z,6.10
2024-02-10T09:34:43.272Z,5.22
2024-02-10T09:37:10.664Z,5.90
2024-02-10T09:39:38.626Z,5.45
2024-02-10T09:42:10.339Z,4.97
2024-02-10T09:44:38.585Z,6.90
2024-02-10T09:47:09.413Z,6.03
2024-02-10T09:49:39.547Z,4.90
2024-02-10T09:52:07.093Z,5.53
2024-02-10T09:54:34.598Z,4.97
2024-02-10T09:57:03.748Z,8.38
2024-02-10T09:59:33.140Z,5.32
2024-02-10T10:02:01.435Z,4.68
2024-02-10T10:04:29.035Z,5.40
2024-02-10T10:06:57.607Z,4.55
2024-02-10T10:09:25.254Z,5.00
2024-02-10T10:11:54.255Z,4.97
2024-02-10T10:14:22.176Z,6.43
2024-02-10T10:17:00.160Z,5.57
2024-02-10T10:19:29.701Z,4.30
2024-02-10T10:21:59.168Z,4.53
2024-02-10T10:24:28.113Z,3.78
2024-02-10T10:26:56.219Z,8.23
2024-02-10T10:29:24.199Z,3.47
2024-02-10T10:31:52.203Z,6.03
2024-02-10T10:34:21.049Z,4.60
2024-02-10T10:36:52.024Z,5.80
2024-02-10T10:39:20.818Z,7.28
2024-02-10T10:41:48.454Z,4.30
2024-02-10T10:44:18.174Z,3.95
2024-02-10T10:46:47.227Z,4.13
2024-02-10T10:49:16.429Z,4.80
2024-02-10T10:52:00.914Z,5.72
2024-02-10T10:54:30.898Z,3.85
2024-02-10T10:57:00.503Z,6.45
2024-02-10T10:59:28.180Z,4.88
2024-02-10T11:01:55.767Z,4.70
2024-02-10T11:04:23.407Z,6.60
2024-02-10T11:06:56.908Z,4.45
2024-02-10T11:09:26.536Z,5.82
2024-02-10T11:11:54.035Z,4.82
2024-02-10T11:14:21.513Z,5.43
2024-02-10T11:16:49.826Z,4.85
2024-02-10T11:19:18.463Z,7.47
2024-02-10T11:21:48.354Z,3.85
2024-02-10T11:24:19.420Z,4.50
2024-02-10T11:26:47.597Z,5.30
2024-02-10T11:29:19.152Z,4.72
2024-02-10T11:31:47.116Z,5.68
2024-02-10T11:34:18.264Z,3.85
2024-02-10T11:36:57.643Z,7.22
2024-02-10T11:39:26.173Z,6.10
2024-02-10T11:41:59.346Z,4.97
2024-02-10T11:44:27.982Z,6.43
2024-02-10T11:46:57.158Z,8.30
2024-02-10T11:49:24.918Z,5.88
2024-02-10T11:51:57.885Z,5.75
2024-02-10T11:54:31.089Z,6.10
2024-02-10T11:57:02.074Z,7.68
2024-02-10T11:59:30.875Z,6.38
2024-02-10T12:01:58.962Z,8.75
2024-02-10T12:04:27.922Z,9.35
2024-02-10T12:06:55.611Z,7.63
2024-02-10T12:09:23.131Z,7.03
2024-02-10T12:12:01.066Z,7.90
2024-02-10T12:14:31.930Z,7.88
2024-02-10T12:17:08.847Z,7.53
2024-02-10T12:19:42.543Z,8.18
2024-02-10T12:22:12.843Z,6.10
2024-02-10T12:24:41.841Z,7.70
2024-02-10T12:27:10.123Z,7.15
2024-02-10T12:29:41.054Z,9.23
2024-02-10T12:32:12.109Z,7.47
2024-02-10T12:34:40.104Z,9.57
2024-02-10T12:37:08.066Z,8.05
2024-02-10T12:39:35.739Z,7.95
2024-02-10T12:42:03.191Z,7.20
2024-02-10T12:44:33.102Z,8.55
2024-02-10T12:47:03.134Z,8.70
2024-02-10T12:49:30.753Z,7.15
2024-02-10T12:51:58.297Z,10.73
2024-02-10T12:54:29.080Z,8.25
2024-02-10T12:56:57.650Z,8.60
2024-02-10T12:59:27.904Z,5.47
2024-02-10T13:01:58.245Z,6.75
2024-02-10T13:04:29.083Z,8.73
2024-02-10T13:06:58.660Z,8.48
2024-02-10T13:09:26.423Z,7.63
2024-02-10T13:11:54.046Z,6.30
2024-02-10T13:14:21.714Z,8.88
2024-02-10T13:16:49.259Z,5.85
2024-02-10T13:19:16.987Z,6.03
2024-02-10T13:21:46.442Z,11.05
2024-02-10T13:24:15.705Z,9.43
2024-02-10T13:26:43.196Z,7.50
2024-02-10T13:29:10.691Z,7.18
2024-02-10T13:31:38.437Z,5.78
2024-02-10T13:34:15.330Z,8.20
2024-02-10T13:36:48.504Z,6.97
2024-02-10T13:39:34.539Z,7.40
2024-02-10T13:42:20.631Z,6.18
2024-02-10T13:45:08.725Z,6.53
2024-02-10T13:47:55.143Z,6.22
2024-02-10T13:50:41.354Z,8.07
2024-02-10T13:53:30.513Z,6.10
2024-02-10T13:56:16.633Z,6.18
2024-02-10T13:58:44.419Z,6.10
2024-02-10T14:01:13.934Z,6.68
2024-02-10T14:04:10.633Z,9.23
2024-02-10T14:06:38.268Z,6.28
2024-02-10T14:09:07.642Z,8.48
2024-02-10T14:11:37.478Z,7.88
2024-02-10T14:14:05.538Z,5.93
2024-02-10T14:16:35.035Z,6.13
2024-02-10T14:19:07.459Z,5.40
2024-02-10T14:21:40.079Z,3.83
2024-02-10T14:24:12.172Z,5.43
2024-02-10T14:26:43.722Z,5.63
2024-02-10T14:29:23.570Z,4.82
2024-02-10T14:31:54.032Z,5.72
2024-02-10T14:34:39.444Z,9.95
2024-02-10T14:37:33.382Z,6.75
2024-02-10T14:40:01.657Z,7.03
2024-02-10T14:42:29.331Z,5.60
2024-02-10T14:44:56.964Z,6.32
2024-02-10T14:47:26.120Z,5.70
2024-02-10T14:49:54.078Z,6.03
2024-02-10T14:52:24.065Z,6.30
2024-02-10T14:54:51.986Z,5.13
2024-02-10T14:57:24.753Z,7.65
2024-02-10T14:59:52.454Z,4.90
2024-02-10T15:02:23.892Z,5.80
2024-02-10T15:04:52.049Z,5.15
2024-02-10T15:07:23.748Z,5.40
2024-02-10T15:09:52.112Z,4.35
2024-02-10T15:12:19.546Z,5.45
2024-02-10T15:14:47.046Z,4.28
2024-02-10T15:17:18.189Z,5.57
2024-02-10T15:19:46.581Z,5.32
2024-02-10T15:22:16.454Z,8.63
2024-02-10T15:24:44.897Z,6.90
2024-02-10T15:27:14.043Z,4.97
2024-02-10T15:29:41.748Z,6.60
2024-02-10T15:32:11.000Z,4.80
2024-02-10T15:34:47.894Z,4.97
2024-02-10T15:37:19.351Z,5.47
2024-02-10T15:39:46.634Z,6.45
2024-02-10T15:42:14.054Z,4.53
2024-02-10T15:44:47.146Z,8.20
2024-02-10T15:47:19.577Z,5.65
2024-02-10T15:49:48.161Z,5.40
2024-02-10T15:52:16.926Z,5.70
2024-02-10T15:54:44.543Z,6.03
2024-02-10T15:57:12.055Z,5.47
2024-02-10T15:59:39.544Z,5.72
2024-02-10T16:02:13.153Z,4.70
2024-02-10T16:04:44.053Z,5.28
2024-02-10T16:07:11.603Z,6.88
2024-02-10T16:09:39.153Z,4.38
2024-02-10T16:12:10.069Z,5.10
2024-02-10T16:14:37.903Z,5.65
2024-02-10T16:17:05.381Z,5.38
2024-02-10T16:19:36.471Z,6.00
2024-02-10T16:22:06.044Z,5.95
2024-02-10T16:24:33.656Z,7.18
2024-02-10T16:27:01.105Z,9.25
2024-02-10T16:29:28.616Z,7.10
2024-02-10T16:31:56.273Z,6.50
2024-02-10T16:34:24.833Z,6.03
2024-02-10T16:36:54.557Z,7.75
2024-02-10T16:39:22.552Z,5.88
2024-02-10T16:41:49.879Z,6.55
2024-02-10T16:44:17.532Z,6.45
2024-02-10T16:46:46.827Z,6.82
2024-02-10T16:49:15.900Z,8.07
2024-02-10T16:51:43.745Z,5.97
2024-02-10T16:54:13.609Z,6.85
2024-02-10T16:56:43.164Z,7.47
2024-02-10T16:59:11.595Z,7.47
2024-02-10T17:01:39.293Z,6.75
2024-02-10T17:04:09.081Z,5.05
2024-02-10T17:06:37.586Z,7.03
2024-02-10T17:09:08.279Z,6.03
2024-02-10T17:11:37.965Z,6.68
2024-02-10T17:14:06.013Z,7.97
2024-02-10T17:16:33.615Z,7.32
2024-02-10T17:19:02.305Z,6.90
2024-02-10T17:21:29.733Z,6.20
2024-02-10T17:23:59.421Z,7.47
2024-02-10T17:26:26.876Z,6.95
2024-02-10T17:28:54.703Z,6.75
2024-02-10T17:31:24.837Z,6.43
2024-02-10T17:33:52.574Z,7.00
2024-02-10T17:36:23.797Z,7.65
2024-02-10T17:38:53.252Z,6.40
2024-02-10T17:41:22.638Z,7.57
2024-02-10T17:43:51.963Z,8.18
2024-02-10T17:46:22.403Z,5.20
2024-02-10T17:48:50.127Z,8.00
2024-02-10T17:51:17.869Z,8.90
2024-02-10T17:53:45.336Z,7.35
2024-02-10T17:56:13.398Z,7.47
2024-02-10T17:58:41.099Z,6.25
2024-02-10T18:01:08.755Z,5.82
2024-02-10T18:03:37.535Z,5.72
2024-02-10T18:06:12.559Z,7.50
2024-02-10T18:08:41.576Z,6.22
2024-02-10T18:11:15.998Z,8.27
2024-02-10T18:13:49.289Z,6.70
2024-02-10T18:16:17.721Z,6.05
2024-02-10T18:18:48.788Z,6.03
2024-02-10T18:21:20.674Z,6.13
2024-02-10T18:23:48.772Z,6.40
2024-02-10T18:26:17.816Z,6.45
2024-02-10T18:28:45.682Z,7.32
2024-02-10T18:31:15.812Z,5.72
2024-02-10T18:33:43.811Z,6.28
2024-02-10T18:36:12.013Z,5.95
2024-02-10T18:38:39.766Z,5.65
2024-02-10T18:41:07.176Z,6.40
2024-02-10T18:43:34.758Z,5.28
2024-02-10T18:46:03.219Z,9.57
2024-02-10T18:48:30.670Z,7.28
2024-02-10T18:50:58.458Z,6.68
2024-02-10T18:53:29.107Z,6.53
2024-02-10T18:55:56.679Z,7.82
2024-02-10T18:58:24.349Z,8.60
2024-02-10T19:00:52.345Z,7.25
2024-02-10T19:03:20.461Z,6.25
2024-02-10T19:05:49.459Z,6.40
2024-02-10T19:08:17.607Z,7.28
2024-02-10T19:10:45.309Z,5.38
2024-02-10T19:13:15.673Z,5.93
2024-02-10T19:15:43.865Z,6.82
2024-02-10T19:18:15.269Z,6.22
2024-02-10T19:20:43.132Z,7.10
2024-02-10T19:23:10.778Z,6.57
2024-02-10T19:25:40.267Z,5.30
2024-02-10T19:28:11.294Z,5.78
2024-02-10T19:30:39.187Z,6.78
2024-02-10T19:33:07.100Z,6.10
2024-02-10T19:35:36.199Z,4.78
2024-02-10T19:38:07.006Z,5.75
2024-02-10T19:40:36.220Z,5.30
2024-02-10T19:43:03.953Z,6.47
2024-02-10T19:45:32.931Z,5.00
2024-02-10T19:48:00.554Z,6.13
2024-02-10T19:50:29.634Z,6.82
2024-02-10T19:53:02.440Z,5.43
2024-02-10T19:55:30.004Z,6.95
2024-02-10T19:57:57.427Z,5.70
2024-02-10T20:00:26.783Z,6.28
2024-02-10T20:02:54.919Z,7.68
2024-02-10T20:05:23.093Z,8.15
2024-02-10T20:07:51.013Z,8.45
2024-02-10T20:10:19.880Z,7.78
2024-02-10T20:12:47.612Z,7.70
2024-02-10T20:15:15.253Z,7.82
2024-02-10T20:17:47.982Z,7.60
2024-02-10T20:20:18.722Z,7.18
2024-02-10T20:22:47.038Z,7.85
2024-02-10T20:25:18.370Z,8.43
2024-02-10T20:27:46.434Z,8.88
2024-02-10T20:30:14.310Z,10.85
2024-02-10T20:32:42.034Z,11.27
2024-02-10T20:35:11.804Z,11.77
2024-02-10T20:37:43.114Z,10.77
2024-02-10T20:40:14.243Z,8.85
2024-02-10T20:42:42.146Z,10.07
2024-02-10T20:45:10.998Z,10.75
2024-02-10T20:47:39.933Z,9.25
2024-02-10T20:50:08.573Z,10.05
2024-02-10T20:52:38.105Z,8.70
2024-02-10T20:55:08.129Z,9.43
2024-02-10T20:57:35.767Z,8.95
2024-02-10T21:00:08.497Z,8.43
2024-02-10T21:02:38.207Z,8.77
2024-02-10T21:05:06.466Z,9.57
2024-02-10T21:07:34.367Z,8.65
2024-02-10T21:10:02.008Z,8.48
2024-02-10T21:12:32.074Z,10.90
2024-02-10T21:14:59.721Z,12.70
2024-02-10T21:17:27.437Z,10.43
2024-02-10T21:19:55.533Z,9.93
2024-02-10T21:22:22.973Z,9.35
2024-02-10T21:24:50.472Z,8.98
2024-02-10T21:27:19.488Z,8.65
2024-02-10T21:29:46.976Z,8.20
2024-02-10T21:32:14.697Z,8.98
2024-02-10T21:34:42.612Z,9.30
2024-02-10T21:37:10.349Z,11.55
2024-02-10T21:39:37.909Z,9.88
2024-02-10T21:42:05.449Z,11.75
2024-02-10T21:44:37.033Z,9.27
2024-02-10T21:47:04.871Z,10.65
2024-02-10T21:49:32.461Z,10.50
2024-02-10T21:52:00.409Z,10.70
2024-02-10T21:54:28.321Z,11.05
2024-02-10T21:56:56.902Z,11.88
2024-02-10T21:59:24.404Z,11.40
2024-02-10T22:01:53.316Z,11.32
2024-02-10T22:04:23.545Z,11.70
2024-02-10T22:06:51.154Z,11.70
2024-02-10T22:09:21.336Z,11.00
2024-02-10T22:11:48.722Z,11.65
2024-02-10T22:14:16.164Z,11.65
2024-02-10T22:16:51.474Z,12.10
2024-02-10T22:19:22.734Z,11.70
2024-02-10T22:21:51.651Z,12.02
2024-02-10T22:24:20.954Z,11.90
2024-02-10T22:26:48.909Z,11.40
2024-02-10T22:29:18.641Z,12.80
2024-02-10T22:31:54.944Z,14.45
2024-02-10T22:34:22.511Z,12.13
2024-02-10T22:36:49.953Z,11.85
2024-02-10T22:39:17.737Z,12.20
2024-02-10T22:41:49.125Z,12.80
2024-02-10T22:44:17.520Z,13.10
2024-02-10T22:46:45.635Z,13.07
2024-02-10T22:49:13.228Z,12.30
2024-02-10T22:51:43.530Z,13.88
2024-02-10T22:54:11.278Z,12.73
2024-02-10T22:56:38.767Z,14.27
2024-02-10T22:59:08.009Z,12.55
2024-02-10T23:01:35.680Z,12.70
2024-02-10T23:04:03.225Z,13.05
2024-02-10T23:06:37.728Z,13.05
2024-02-10T23:09:13.110Z,11.40
2024-02-10T23:11:44.221Z,13.55
2024-02-10T23:14:14.039Z,13.43
2024-02-10T23:16:41.905Z,11.73
2024-02-10T23:19:09.408Z,11.65
2024-02-10T23:21:40.349Z,11.60
2024-02-10T23:24:07.923Z,10.82
2024-02-10T23:26:40.687Z,12.70
2024-02-10T23:29:09.545Z,11.45
2024-02-10T23:31:38.964Z,10.27
2024-02-10T23:34:08.962Z,11.65
2024-02-10T23:36:38.252Z,11.23
2024-02-10T23:39:09.453Z,10.32
2024-02-10T23:41:38.106Z,10.75
2024-02-10T23:44:06.449Z,9.90
2024-02-10T23:46:34.269Z,11.38
2024-02-10T23:49:01.791Z,8.10
2024-02-10T23:51:31.110Z,11.30
2024-02-10T23:53:59.201Z,9.73
2024-02-10T23:56:26.723Z,9.00
2024-02-10T23:58:54.964Z,8.93
